Time;durP1;ratioP1;P1;durP2;ratioP2;P2;SDS_P1;SDS_P2;PMS_P1;PMS_P2;Temp;Humidity;BMP_temperature;BMP_pressure;BME280_temperature;BME280_humidity;BME280_pressure;Samples;Min_cycle;Max_cycle;Signal;HPM_P1;HPM_P2
2022/06/06 00:01:40;;;;;;;2.70;2.40;;;15.50;99.90;;;;;;5010201;28;20437;-74
2022/06/06 00:04:05;;;;;;;3.57;3.30;;;15.40;99.90;;;;;;5010519;28;20472;-74
2022/06/06 00:06:31;;;;;;;5.43;2.30;;;15.40;99.90;;;;;;5010744;28;20829;-72
2022/06/06 00:08:57;;;;;;;2.50;2.40;;;15.30;99.90;;;;;;5011041;28;20182;-74
2022/06/06 00:11:23;;;;;;;6.53;2.37;;;15.30;99.90;;;;;;5010200;28;20253;-74
2022/06/06 00:13:49;;;;;;;3.53;3.23;;;15.30;99.90;;;;;;5010848;28;20425;-74
2022/06/06 00:16:15;;;;;;;7.70;2.97;;;15.30;99.90;;;;;;5010365;28;20427;-74
2022/06/06 00:18:40;;;;;;;2.70;2.50;;;15.30;99.90;;;;;;5010775;28;20548;-74
2022/06/06 00:21:09;;;;;;;3.57;3.27;;;15.30;99.90;;;;;;5010168;28;20199;-74
2022/06/06 00:23:36;;;;;;;2.70;2.60;;;15.30;99.90;;;;;;5010648;28;20209;-74
2022/06/06 00:26:07;;;;;;;3.43;3.13;;;15.20;99.90;;;;;;5010819;28;20418;-74
2022/06/06 00:28:34;;;;;;;3.80;2.73;;;15.30;99.90;;;;;;5010268;28;20413;-72
2022/06/06 00:34:48;;;;;;;6.50;3.60;;;15.30;99.90;;;;;;5008426;28;20461;-74
2022/06/06 00:36:34;;;;;;;4.13;2.90;;;15.20;99.90;;;;;;5010439;28;20436;-74
2022/06/06 00:39:00;;;;;;;3.50;3.20;;;15.30;99.90;;;;;;5010258;28;20449;-72
2022/06/06 00:41:26;;;;;;;2.73;2.53;;;15.30;99.90;;;;;;5009835;28;20445;-74
2022/06/06 00:44:10;;;;;;;6.20;3.33;;;15.30;99.90;;;;;;5009832;28;20805;-73
2022/06/06 00:46:42;;;;;;;2.77;2.57;;;15.30;99.90;;;;;;5010528;28;20179;-73
2022/06/06 00:49:17;;;;;;;5.67;2.90;;;15.30;99.90;;;;;;5013563;28;20421;-74
2022/06/06 00:51:43;;;;;;;3.33;3.13;;;15.30;99.90;;;;;;5013723;28;20440;-74
2022/06/06 00:54:09;;;;;;;6.67;3.73;;;15.30;99.90;;;;;;5014514;28;20426;-74
2022/06/06 00:56:49;;;;;;;4.60;3.00;;;15.30;99.90;;;;;;5014484;28;20429;-73
2022/06/06 00:59:19;;;;;;;4.77;3.80;;;15.20;99.90;;;;;;5014052;28;20208;-74
2022/06/06 02:32:22;;;;;;;4.40;4.00;;;13.50;99.90;;;;;;5360859;23;21038;-72
2022/06/06 02:34:47;;;;;;;4.90;4.50;;;13.50;99.90;;;;;;5011982;28;20417;-71
2022/06/06 02:37:13;;;;;;;4.90;4.50;;;13.50;99.90;;;;;;5010621;28;20258;-73
2022/06/06 02:39:39;;;;;;;5.30;4.90;;;13.50;99.90;;;;;;5001302;28;20182;-73
2022/06/06 02:42:05;;;;;;;4.30;4.00;;;13.50;99.90;;;;;;4994463;28;20195;-73
2022/06/06 02:44:31;;;;;;;6.70;4.63;;;13.50;99.90;;;;;;4993962;28;20207;-73
2022/06/06 02:46:56;;;;;;;5.43;4.93;;;13.50;99.90;;;;;;4993904;28;20418;-72
2022/06/06 02:49:22;;;;;;;7.50;4.00;;;13.40;99.90;;;;;;4993802;28;20934;-73
2022/06/06 02:51:47;;;;;;;5.47;4.97;;;13.50;99.90;;;;;;4993597;28;20226;-73
2022/06/06 02:54:13;;;;;;;4.67;4.10;;;13.40;99.90;;;;;;4993576;28;20290;-73
2022/06/06 02:56:39;;;;;;;5.67;3.63;;;13.40;99.90;;;;;;4993849;28;20174;-73
2022/06/06 02:59:06;;;;;;;12.03;5.13;;;13.40;99.90;;;;;;4993388;28;20426;-73
2022/06/06 03:01:32;;;;;;;5.63;4.63;;;13.30;99.90;;;;;;4993295;28;20338;-72
2022/06/06 03:03:58;;;;;;;4.50;4.10;;;13.30;99.90;;;;;;4992554;28;20978;-73
2022/06/06 03:06:39;;;;;;;4.40;4.00;;;13.30;99.90;;;;;;4993518;28;20421;-73
2022/06/06 03:09:16;;;;;;;4.77;4.37;;;13.20;99.90;;;;;;4993335;28;20942;-73
2022/06/06 03:12:12;;;;;;;13.20;4.90;;;13.20;99.90;;;;;;4992859;28;20426;-73
2022/06/06 03:15:01;;;;;;;9.07;5.10;;;13.20;99.90;;;;;;4994009;28;20414;-73
2022/06/06 03:21:09;;;;;;;5.37;4.87;;;13.20;99.90;;;;;;4966185;28;20893;-72
2022/06/06 03:24:04;;;;;;;5.43;4.63;;;13.20;99.90;;;;;;4993102;28;20950;-73
2022/06/06 03:26:55;;;;;;;5.13;4.40;;;13.20;99.90;;;;;;4993214;28;20914;-73
2022/06/06 03:29:57;;;;;;;5.10;4.57;;;13.20;99.90;;;;;;4993154;28;20415;-72
2022/06/06 03:33:05;;;;;;;5.23;4.83;;;13.30;99.90;;;;;;4975328;28;21085;-72
2022/06/06 03:35:41;;;;;;;7.27;4.90;;;13.30;99.90;;;;;;4913723;29;20566;-73
2022/06/06 03:38:23;;;;;;;5.43;5.03;;;13.40;99.90;;;;;;4982345;28;20425;-72
2022/06/06 03:41:25;;;;;;;5.90;5.40;;;13.50;99.90;;;;;;4992530;28;20415;-72
2022/06/06 03:44:06;;;;;;;4.87;4.13;;;13.50;99.90;;;;;;4992926;28;20821;-72
2022/06/06 03:46:45;;;;;;;9.40;5.70;;;13.50;99.90;;;;;;4992818;28;20501;-72
2022/06/06 03:49:40;;;;;;;4.97;4.50;;;13.60;99.90;;;;;;4992742;28;20398;-73
2022/06/06 03:52:24;;;;;;;6.73;5.10;;;13.60;99.90;;;;;;4992418;28;20453;-73
2022/06/06 03:55:29;;;;;;;6.23;4.97;;;13.60;99.90;;;;;;4992789;28;20414;-73
2022/06/06 03:57:59;;;;;;;5.23;4.27;;;13.70;99.90;;;;;;4992770;28;20418;-72
2022/06/06 04:00:24;;;;;;;9.80;4.90;;;13.80;99.90;;;;;;4992657;28;20411;-70
2022/06/06 04:02:52;;;;;;;6.00;4.80;;;13.80;99.90;;;;;;4992688;28;20442;-73
2022/06/06 04:05:22;;;;;;;5.10;4.60;;;13.80;99.90;;;;;;4992385;28;20178;-71
2022/06/06 04:07:48;;;;;;;5.07;4.60;;;13.90;99.90;;;;;;4992465;28;20510;-71
2022/06/06 04:10:14;;;;;;;4.83;4.53;;;13.90;99.90;;;;;;4992122;28;20494;-70
2022/06/06 04:13:19;;;;;;;4.67;4.27;;;13.90;99.90;;;;;;4992360;28;20199;-70
2022/06/06 04:16:08;;;;;;;4.63;4.27;;;14.00;99.90;;;;;;4992493;28;20427;-70
2022/06/06 04:18:37;;;;;;;5.10;4.67;;;14.00;99.90;;;;;;4992395;28;20406;-70
2022/06/06 04:21:17;;;;;;;4.60;4.30;;;14.10;99.90;;;;;;4991747;28;20434;-70
2022/06/06 04:24:13;;;;;;;5.50;4.60;;;14.10;99.90;;;;;;4992239;28;20556;-69
2022/06/06 04:26:50;;;;;;;5.43;4.83;;;14.20;99.90;;;;;;4992346;28;20578;-70
2022/06/06 04:29:26;;;;;;;6.27;5.70;;;14.20;99.90;;;;;;4992219;28;20783;-70
2022/06/06 04:32:13;;;;;;;7.63;4.80;;;14.30;99.90;;;;;;4991805;28;20503;-70
2022/06/06 04:34:45;;;;;;;5.17;4.77;;;14.30;99.90;;;;;;4992249;28;20419;-70
2022/06/06 04:37:39;;;;;;;4.97;4.53;;;14.40;99.90;;;;;;4992300;28;20506;-70
2022/06/06 04:40:14;;;;;;;5.27;4.77;;;14.60;99.90;;;;;;4992050;28;20465;-70
2022/06/06 04:42:42;;;;;;;5.33;4.17;;;14.70;99.90;;;;;;4992075;28;20444;-71
2022/06/06 04:45:31;;;;;;;4.50;4.20;;;14.90;99.90;;;;;;4992066;28;20872;-70
2022/06/06 04:47:58;;;;;;;5.90;4.57;;;15.00;99.90;;;;;;4991568;28;20423;-69
2022/06/06 04:50:24;;;;;;;5.17;4.67;;;15.20;99.90;;;;;;4991886;28;20417;-68
2022/06/06 04:52:56;;;;;;;4.90;4.53;;;15.50;99.90;;;;;;4991795;28;20513;-70
2022/06/06 04:55:24;;;;;;;4.73;4.23;;;15.70;99.90;;;;;;4992092;28;20218;-71
2022/06/06 04:57:53;;;;;;;3.83;3.53;;;15.90;99.90;;;;;;4991950;28;20840;-70
2022/06/06 05:00:20;;;;;;;4.27;3.90;;;16.40;99.90;;;;;;4991675;28;20410;-71
2022/06/06 05:02:46;;;;;;;3.17;2.87;;;17.50;99.90;;;;;;4991599;28;20435;-71
2022/06/06 05:05:11;;;;;;;5.63;2.93;;;19.00;99.90;;;;;;4990243;28;20434;-70
2022/06/06 05:07:49;;;;;;;3.17;2.70;;;20.30;99.90;;;;;;4991894;28;20276;-70
2022/06/06 05:10:24;;;;;;;2.33;2.13;;;21.40;99.90;;;;;;4991495;28;20531;-70
2022/06/06 05:13:15;;;;;;;10.63;2.53;;;22.60;99.90;;;;;;4992051;28;20807;-71
2022/06/06 05:15:45;;;;;;;3.10;2.20;;;24.00;99.90;;;;;;4992327;28;20421;-71
2022/06/06 05:18:42;;;;;;;3.00;2.43;;;24.40;99.90;;;;;;4991679;28;20892;-72
2022/06/06 05:21:10;;;;;;;3.07;2.33;;;24.80;99.90;;;;;;4992132;28;20449;-70
2022/06/06 05:23:52;;;;;;;5.60;3.10;;;25.00;99.90;;;;;;4992352;28;20458;-71
2022/06/06 05:26:30;;;;;;;5.07;3.43;;;24.00;99.90;;;;;;4991413;28;20414;-71
2022/06/06 05:29:24;;;;;;;2.50;2.30;;;23.20;99.90;;;;;;4991512;28;20506;-71
2022/06/06 05:31:55;;;;;;;3.30;2.73;;;22.40;99.90;;;;;;4991418;28;20453;-70
2022/06/06 05:34:26;;;;;;;2.10;2.00;;;21.60;99.90;;;;;;4993412;28;20457;-72
2022/06/06 05:37:15;;;;;;;3.13;2.67;;;20.80;99.90;;;;;;4995127;28;20414;-71
2022/06/06 05:40:11;;;;;;;6.33;2.73;;;20.20;99.90;;;;;;4995111;28;20919;-70
2022/06/06 05:42:51;;;;;;;3.47;3.27;;;19.80;99.90;;;;;;4994645;28;20457;-71
2022/06/06 05:45:26;;;;;;;4.13;2.80;;;19.50;99.90;;;;;;4994576;28;20415;-69
2022/06/06 05:48:22;;;;;;;4.30;2.83;;;19.60;99.90;;;;;;4994913;28;20444;-71
2022/06/06 05:50:57;;;;;;;2.90;2.50;;;19.80;99.90;;;;;;4994303;28;20446;-71
2022/06/06 05:53:29;;;;;;;3.73;2.80;;;20.20;99.90;;;;;;4995011;28;20402;-71
2022/06/06 05:56:09;;;;;;;3.37;3.17;;;20.50;99.90;;;;;;4994425;28;20425;-71
2022/06/06 05:58:49;;;;;;;2.50;2.40;;;20.80;99.90;;;;;;4994535;28;20406;-71
2022/06/06 06:01:37;;;;;;;3.27;2.97;;;20.90;99.90;;;;;;4993943;28;20426;-69
2022/06/06 06:04:31;;;;;;;4.00;2.80;;;21.00;99.90;;;;;;4994175;28;20454;-70
2022/06/06 06:07:21;;;;;;;7.43;2.53;;;21.20;99.90;;;;;;4994437;28;20788;-71
2022/06/06 06:10:21;;;;;;;4.80;2.77;;;21.30;99.90;;;;;;4994319;28;20407;-71
2022/06/06 06:13:08;;;;;;;3.00;2.80;;;21.30;99.90;;;;;;4963708;28;20446;-71
2022/06/06 06:15:38;;;;;;;3.20;2.90;;;21.00;99.90;;;;;;4994293;28;20480;-72
2022/06/06 06:18:28;;;;;;;7.70;2.80;;;20.70;99.90;;;;;;4994134;28;20966;-71
2022/06/06 06:21:00;;;;;;;7.30;2.70;;;20.70;99.90;;;;;;4993204;28;20448;-71
2022/06/06 06:23:29;;;;;;;3.80;3.50;;;20.40;99.90;;;;;;4994066;28;20520;-71
2022/06/06 06:25:59;;;;;;;2.80;2.67;;;20.30;99.90;;;;;;4993906;28;20517;-70
2022/06/06 06:28:28;;;;;;;3.63;3.33;;;20.20;99.90;;;;;;4993895;28;20515;-71
2022/06/06 06:31:00;;;;;;;3.27;3.07;;;20.40;99.90;;;;;;4993501;28;20426;-71
2022/06/06 06:33:33;;;;;;;3.00;2.70;;;20.70;99.90;;;;;;4994063;28;20502;-71
2022/06/06 06:36:12;;;;;;;3.47;3.23;;;20.70;99.90;;;;;;4993740;28;20461;-70
2022/06/06 06:38:59;;;;;;;3.50;3.23;;;20.80;99.90;;;;;;4993882;28;20455;-70
2022/06/06 06:41:45;;;;;;;3.03;2.83;;;20.80;99.90;;;;;;4993469;28;20426;-71
2022/06/06 06:44:18;;;;;;;3.03;2.83;;;20.70;99.90;;;;;;4993176;28;20489;-70
2022/06/06 06:46:51;;;;;;;3.23;3.00;;;20.80;99.90;;;;;;4993095;28;20450;-71
2022/06/06 06:49:35;;;;;;;4.63;2.90;;;21.10;99.90;;;;;;4993638;28;20469;-71
2022/06/06 06:52:20;;;;;;;2.93;2.73;;;21.30;99.90;;;;;;4993489;28;20950;-71
2022/06/06 06:55:10;;;;;;;4.00;3.40;;;21.60;99.90;;;;;;4993622;28;20427;-71
2022/06/06 06:58:08;;;;;;;8.67;3.07;;;21.60;99.90;;;;;;4993509;28;20433;-70
2022/06/06 07:00:41;;;;;;;3.70;2.97;;;21.80;99.90;;;;;;4993272;28;20489;-69
2022/06/06 07:09:28;;;;;;;3.40;3.10;;;22.70;99.90;;;;;;4993308;28;20413;-71
2022/06/06 07:12:22;;;;;;;2.97;2.77;;;22.80;99.90;;;;;;4993289;28;20802;-71
2022/06/06 07:15:16;;;;;;;2.90;2.70;;;22.90;99.90;;;;;;4994060;28;20502;-71
2022/06/06 07:17:46;;;;;;;4.03;3.07;;;23.00;99.90;;;;;;4993308;28;20806;-71
2022/06/06 07:20:15;;;;;;;3.30;2.70;;;22.90;99.90;;;;;;4992779;28;20410;-71
2022/06/06 07:22:59;;;;;;;3.40;3.10;;;22.70;99.90;;;;;;4992864;28;20451;-71
2022/06/06 07:25:33;;;;;;;3.77;3.40;;;22.60;99.90;;;;;;4992932;28;20907;-70
2022/06/06 07:27:59;;;;;;;5.63;3.00;;;22.10;99.90;;;;;;4992829;28;20457;-71
2022/06/06 07:30:29;;;;;;;9.27;3.33;;;22.00;99.90;;;;;;4992570;28;20411;-70
2022/06/06 07:33:07;;;;;;;3.20;3.00;;;22.30;99.90;;;;;;4992625;28;20508;-71
2022/06/06 07:35:40;;;;;;;3.37;2.83;;;22.40;99.90;;;;;;4992559;28;20411;-72
2022/06/06 07:38:16;;;;;;;4.17;2.97;;;22.50;99.90;;;;;;4992603;28;20899;-70
2022/06/06 07:41:25;;;;;;;2.80;2.60;;;22.40;99.90;;;;;;4992432;28;20460;-70
2022/06/06 07:43:57;;;;;;;3.27;3.00;;;22.60;99.90;;;;;;4992692;28;20469;-71
2022/06/06 07:47:07;;;;;;;3.27;2.80;;;22.70;99.90;;;;;;4992338;28;20418;-70
2022/06/06 07:49:50;;;;;;;2.77;2.30;;;23.00;99.90;;;;;;4966459;28;20457;-70
2022/06/06 07:52:44;;;;;;;3.50;2.27;;;23.00;99.90;;;;;;4992186;28;20449;-71
2022/06/06 07:55:26;;;;;;;4.00;3.23;;;23.20;99.90;;;;;;4992318;28;20414;-70
2022/06/06 07:57:57;;;;;;;5.37;2.93;;;23.10;99.90;;;;;;4992142;28;20509;-70
2022/06/06 08:00:28;;;;;;;3.30;3.00;;;23.10;99.90;;;;;;4991915;28;20529;-69
2022/06/06 08:03:19;;;;;;;3.03;2.83;;;23.10;99.90;;;;;;4992296;28;20438;-71
2022/06/06 08:06:02;;;;;;;2.70;2.60;;;23.30;99.90;;;;;;4992194;28;20474;-71
2022/06/06 08:08:55;;;;;;;3.90;2.30;;;23.70;99.90;;;;;;4992471;28;20446;-71
2022/06/06 08:11:39;;;;;;;4.03;2.67;;;24.10;99.90;;;;;;4991926;28;20812;-71
2022/06/06 08:14:17;;;;;;;2.00;1.90;;;24.90;99.90;;;;;;4992086;28;20429;-70
2022/06/06 08:17:33;;;;;;;2.00;1.90;;;25.50;99.90;;;;;;4993254;28;20410;-70
2022/06/06 08:20:31;;;;;;;3.80;2.10;;;25.40;99.90;;;;;;4913948;29;20433;-70
2022/06/06 08:23:00;;;;;;;2.83;2.63;;;25.30;99.90;;;;;;4897643;29;21017;-70
2022/06/06 08:25:28;;;;;;;2.07;1.87;;;25.30;99.90;;;;;;4969114;28;20430;-71
2022/06/06 08:27:56;;;;;;;2.63;1.63;;;25.70;99.90;;;;;;4991923;28;20411;-71
2022/06/06 08:30:22;;;;;;;2.70;2.20;;;26.00;99.90;;;;;;4992157;28;20900;-70
2022/06/06 08:32:48;;;;;;;2.17;2.07;;;26.40;99.90;;;;;;4991717;28;20442;-70
2022/06/06 08:35:15;;;;;;;2.80;2.00;;;26.70;99.90;;;;;;4991882;28;20450;-70
2022/06/06 08:38:02;;;;;;;1.93;1.80;;;26.60;99.90;;;;;;4991899;28;20225;-71
2022/06/06 08:40:56;;;;;;;1.80;1.70;;;26.30;99.90;;;;;;4991894;28;20453;-71
2022/06/06 08:43:33;;;;;;;4.73;2.13;;;26.40;99.90;;;;;;4991652;28;20462;-71
2022/06/06 08:46:21;;;;;;;4.37;2.10;;;26.20;99.90;;;;;;4991872;28;20824;-71
2022/06/06 08:50:44;;;;;;;2.87;1.37;;;25.90;99.90;;;;;;4991980;28;20421;-70
2022/06/06 08:52:21;;;;;;;2.30;1.77;;;26.10;99.90;;;;;;4991339;28;20442;-70
2022/06/06 08:55:27;;;;;;;1.87;1.67;;;26.40;99.90;;;;;;4991844;28;20414;-69
2022/06/06 08:58:11;;;;;;;1.30;1.20;;;26.80;99.90;;;;;;4991853;28;20525;-71
2022/06/06 09:00:54;;;;;;;3.50;1.50;;;26.80;99.90;;;;;;4991513;28;20497;-70
2022/06/06 09:03:57;;;;;;;1.97;1.87;;;26.40;99.90;;;;;;4991515;28;20838;-71
2022/06/06 09:06:35;;;;;;;1.50;1.40;;;26.20;99.90;;;;;;4991719;28;20489;-71
2022/06/06 09:09:18;;;;;;;2.40;1.50;;;26.30;99.90;;;;;;4993590;28;20413;-71
2022/06/06 09:12:10;;;;;;;3.27;1.70;;;26.50;99.90;;;;;;4995143;28;20441;-71
2022/06/06 09:14:57;;;;;;;2.50;1.60;;;26.20;99.90;;;;;;4982615;28;20965;-71
2022/06/06 09:17:56;;;;;;;4.20;1.60;;;26.00;99.90;;;;;;4995472;28;20421;-70
2022/06/06 09:20:47;;;;;;;1.80;1.70;;;25.50;99.90;;;;;;4995464;28;20993;-69
2022/06/06 09:23:34;;;;;;;1.70;1.60;;;25.00;99.90;;;;;;4993879;28;20465;-71
2022/06/06 09:26:01;;;;;;;2.40;1.33;;;24.90;99.90;;;;;;4995212;28;20529;-70
2022/06/06 09:29:02;;;;;;;1.40;1.30;;;25.30;99.90;;;;;;4995235;28;20410;-71
2022/06/06 09:31:28;;;;;;;1.47;1.37;;;25.90;99.90;;;;;;4994895;28;20445;-72
2022/06/06 09:34:25;;;;;;;4.40;1.30;;;25.90;99.90;;;;;;4995083;28;20472;-72
2022/06/06 09:37:29;;;;;;;1.70;1.60;;;26.40;99.90;;;;;;4995230;28;20168;-71
2022/06/06 09:40:11;;;;;;;2.87;1.57;;;27.40;99.90;;;;;;4995089;28;20414;-71
2022/06/06 09:42:46;;;;;;;1.60;1.50;;;28.00;99.90;;;;;;4994803;28;20426;-71
2022/06/06 09:45:23;;;;;;;3.30;1.40;;;27.90;99.90;;;;;;4994879;28;20464;-71
2022/06/06 09:48:10;;;;;;;1.87;1.50;;;28.00;99.90;;;;;;4995176;28;20781;-72
2022/06/06 09:50:38;;;;;;;1.87;1.77;;;27.90;99.90;;;;;;4994361;28;20964;-70
2022/06/06 09:59:01;;;;;;;1.63;1.47;;;27.70;99.90;;;;;;4994792;28;20442;-70
2022/06/06 10:00:09;;;;;;;1.87;1.77;;;28.60;99.90;;;;;;4994866;28;20453;-70
2022/06/06 10:03:14;;;;;;;5.93;1.87;;;28.40;99.90;;;;;;4994393;28;20513;-71
2022/06/06 10:05:56;;;;;;;1.43;1.33;;;28.30;99.90;;;;;;4994334;28;20414;-71
2022/06/06 10:08:45;;;;;;;1.00;1.00;;;28.70;99.90;;;;;;4994478;28;20406;-72
2022/06/06 10:11:40;;;;;;;4.53;1.80;;;28.20;99.90;;;;;;4993805;28;20509;-71
2022/06/06 10:14:27;;;;;;;3.83;1.93;;;28.20;99.90;;;;;;4994159;28;20461;-72
2022/06/06 10:17:30;;;;;;;2.40;1.47;;;28.20;99.90;;;;;;4994330;28;20406;-72
2022/06/06 10:20:01;;;;;;;3.33;1.67;;;28.80;99.90;;;;;;4929083;28;20771;-70
2022/06/06 10:22:45;;;;;;;2.80;1.50;;;29.10;99.90;;;;;;4994123;28;20470;-71
2022/06/06 10:25:50;;;;;;;2.07;1.20;;;29.00;99.90;;;;;;4993948;28;20541;-71
2022/06/06 10:28:25;;;;;;;1.30;1.23;;;29.00;99.90;;;;;;4994033;28;20433;-71
2022/06/06 10:30:57;;;;;;;1.47;1.37;;;28.80;99.90;;;;;;4993898;28;20735;-71
2022/06/06 10:34:05;;;;;;;2.90;1.33;;;29.10;99.90;;;;;;4993891;28;20423;-72
2022/06/06 10:37:02;;;;;;;3.47;1.50;;;28.80;99.90;;;;;;4993767;28;20418;-70
2022/06/06 10:40:09;;;;;;;3.70;1.80;;;29.20;99.90;;;;;;4957141;28;20457;-70
2022/06/06 10:43:03;;;;;;;1.63;1.47;;;29.20;99.90;;;;;;4914406;29;21013;-71
2022/06/06 10:45:46;;;;;;;2.20;1.53;;;28.80;99.90;;;;;;4982763;28;20422;-71
2022/06/06 10:48:17;;;;;;;3.13;1.53;;;28.30;99.90;;;;;;4993866;28;20952;-71
2022/06/06 10:54:29;;;;;;;2.80;1.30;;;27.60;99.90;;;;;;4993585;28;20417;-71
2022/06/06 10:57:32;;;;;;;1.40;1.30;;;27.20;99.90;;;;;;4993628;28;20442;-72
2022/06/06 11:00:03;;;;;;;1.23;1.13;;;28.00;99.90;;;;;;4993578;28;20464;-70
2022/06/06 11:03:12;;;;;;;1.63;1.53;;;28.60;99.90;;;;;;4993301;28;20462;-72
2022/06/06 11:05:56;;;;;;;1.87;1.30;;;29.10;99.90;;;;;;4993495;28;20432;-72
2022/06/06 11:08:33;;;;;;;1.13;1.10;;;29.50;99.90;;;;;;4993222;28;20410;-71
2022/06/06 11:11:36;;;;;;;1.30;1.10;;;29.60;99.90;;;;;;4993044;28;20522;-71
2022/06/06 11:14:22;;;;;;;1.20;1.10;;;29.80;99.90;;;;;;4994200;28;20505;-71
2022/06/06 11:17:06;;;;;;;1.17;1.17;;;28.70;99.90;;;;;;4995942;28;20415;-72
2022/06/06 11:19:54;;;;;;;1.50;1.37;;;28.40;99.90;;;;;;4996229;28;20465;-72
2022/06/06 11:22:24;;;;;;;2.50;1.20;;;28.30;99.90;;;;;;4994256;28;20418;-72
2022/06/06 11:24:53;;;;;;;1.57;1.10;;;27.70;99.90;;;;;;4993224;28;20557;-71
2022/06/06 11:27:47;;;;;;;2.30;1.47;;;27.20;99.90;;;;;;4991666;28;20508;-71
2022/06/06 11:30:33;;;;;;;1.80;1.30;;;26.80;99.90;;;;;;4992875;28;20446;-72
2022/06/06 11:33:17;;;;;;;1.73;1.40;;;26.90;99.90;;;;;;4992723;28;20580;-71
2022/06/06 11:36:08;;;;;;;1.93;1.10;;;27.00;99.90;;;;;;4992734;28;21062;-71
2022/06/06 11:38:46;;;;;;;1.17;1.07;;;27.30;99.90;;;;;;4992851;28;20415;-72
2022/06/06 11:41:33;;;;;;;1.70;1.03;;;27.60;99.90;;;;;;4992151;28;20434;-71
2022/06/06 11:44:32;;;;;;;1.47;1.20;;;27.60;99.90;;;;;;4992544;28;20462;-71
2022/06/06 11:47:35;;;;;;;1.37;1.27;;;27.30;99.90;;;;;;4992525;28;20411;-71
2022/06/06 11:50:25;;;;;;;3.03;1.70;;;27.00;99.90;;;;;;4992433;28;20481;-71
2022/06/06 11:53:20;;;;;;;2.00;1.33;;;26.50;99.90;;;;;;4992641;28;20434;-71
2022/06/06 11:56:22;;;;;;;2.70;1.40;;;26.20;99.90;;;;;;4992442;28;20407;-71
2022/06/06 11:59:21;;;;;;;2.60;1.40;;;26.00;99.90;;;;;;4992587;28;20429;-71
2022/06/06 12:02:11;;;;;;;1.60;1.50;;;25.50;99.90;;;;;;4991993;28;20434;-71
2022/06/06 12:05:04;;;;;;;3.43;1.53;;;25.30;99.90;;;;;;4992640;28;20911;-71
2022/06/06 12:07:45;;;;;;;1.57;1.20;;;24.90;99.90;;;;;;4992606;28;20433;-70
2022/06/06 12:10:22;;;;;;;1.50;1.40;;;24.60;99.90;;;;;;4991995;28;20406;-71
2022/06/06 12:13:15;;;;;;;1.43;1.33;;;24.40;99.90;;;;;;4992531;28;20855;-71
2022/06/06 12:16:02;;;;;;;2.80;1.70;;;24.50;99.90;;;;;;4992422;28;20398;-71
2022/06/06 12:18:58;;;;;;;1.60;1.50;;;24.60;99.90;;;;;;4992452;28;20402;-71
2022/06/06 12:21:45;;;;;;;1.77;1.67;;;24.50;99.90;;;;;;4992031;28;20458;-71
2022/06/06 12:24:29;;;;;;;1.60;1.50;;;24.30;99.90;;;;;;4992057;28;20458;-70
2022/06/06 12:27:18;;;;;;;4.03;1.47;;;24.30;99.90;;;;;;4992162;28;20414;-71
2022/06/06 12:30:21;;;;;;;1.70;1.60;;;24.10;99.90;;;;;;4992393;28;20422;-70
2022/06/06 12:32:58;;;;;;;1.70;1.60;;;24.10;99.90;;;;;;4991917;28;20497;-71
2022/06/06 12:36:07;;;;;;;1.47;1.37;;;24.30;99.90;;;;;;4992056;28;20406;-71
2022/06/06 12:39:01;;;;;;;3.30;1.43;;;24.40;99.90;;;;;;4990870;28;20780;-70
2022/06/06 12:42:03;;;;;;;1.90;1.47;;;24.50;99.90;;;;;;4991462;28;20426;-70
2022/06/06 12:44:55;;;;;;;1.40;1.30;;;24.90;99.90;;;;;;4994970;28;20564;-71
2022/06/06 12:47:42;;;;;;;3.23;1.33;;;25.40;99.90;;;;;;4994779;28;20445;-71
2022/06/06 12:50:44;;;;;;;1.93;1.83;;;25.60;99.90;;;;;;4994772;28;20418;-71
2022/06/06 12:53:28;;;;;;;2.53;1.83;;;25.70;99.90;;;;;;4995478;28;20553;-72
2022/06/06 12:56:17;;;;;;;1.73;1.37;;;25.70;99.90;;;;;;4995152;28;20398;-71
2022/06/06 12:58:45;;;;;;;1.90;1.67;;;25.60;99.90;;;;;;4995271;28;20989;-71
2022/06/06 13:01:37;;;;;;;3.47;1.47;;;25.50;99.90;;;;;;4994634;28;20493;-70
2022/06/06 13:04:21;;;;;;;1.73;1.63;;;25.30;99.90;;;;;;4995410;28;20939;-70
2022/06/06 13:07:05;;;;;;;3.30;1.57;;;25.30;99.90;;;;;;4995584;28;20505;-71
2022/06/06 13:09:51;;;;;;;1.57;1.47;;;25.10;99.90;;;;;;4995546;28;20973;-71
2022/06/06 13:12:34;;;;;;;2.40;1.53;;;25.10;99.90;;;;;;4994902;28;20493;-69
2022/06/06 13:15:09;;;;;;;5.17;1.87;;;25.10;99.90;;;;;;4996023;28;20468;-70
2022/06/06 13:17:57;;;;;;;6.70;1.60;;;24.90;99.90;;;;;;5029518;28;20428;-69
2022/06/06 13:20:47;;;;;;;4.07;2.10;;;24.70;99.90;;;;;;5031174;28;20972;-71
2022/06/06 13:23:47;;;;;;;2.50;1.50;;;24.10;99.90;;;;;;5014511;28;20410;-71
2022/06/06 13:26:34;;;;;;;1.60;1.23;;;23.80;99.90;;;;;;5014267;28;20456;-71
2022/06/06 13:28:59;;;;;;;3.13;1.63;;;23.70;99.90;;;;;;5014633;28;20406;-70
2022/06/06 13:31:42;;;;;;;2.20;1.77;;;23.50;99.90;;;;;;5013308;28;20453;-71
2022/06/06 13:34:36;;;;;;;1.53;1.10;;;23.40;99.90;;;;;;5014902;28;20187;-71
2022/06/06 13:37:21;;;;;;;2.33;1.67;;;23.30;99.90;;;;;;5014411;28;20445;-70
2022/06/06 13:40:13;;;;;;;1.83;1.40;;;23.10;99.90;;;;;;5014469;28;20927;-71
2022/06/06 13:42:41;;;;;;;3.37;1.20;;;22.90;99.90;;;;;;5014298;28;20513;-71
2022/06/06 13:45:30;;;;;;;1.73;1.60;;;22.90;99.90;;;;;;5014143;28;20460;-71
2022/06/06 13:48:08;;;;;;;1.90;1.70;;;22.80;99.90;;;;;;5014306;28;20409;-71
2022/06/06 13:50:33;;;;;;;1.83;1.27;;;22.70;99.90;;;;;;5014042;28;20405;-70
2022/06/06 13:53:14;;;;;;;2.27;1.50;;;22.60;99.90;;;;;;5013578;28;20517;-70
2022/06/06 13:55:40;;;;;;;3.00;1.53;;;22.60;99.90;;;;;;5013280;28;20277;-70
2022/06/06 13:58:49;;;;;;;1.30;1.30;;;22.50;99.90;;;;;;5013722;28;20414;-71
2022/06/06 14:01:28;;;;;;;1.97;1.87;;;22.40;99.90;;;;;;5013368;28;20448;-71
2022/06/06 14:04:32;;;;;;;1.80;1.70;;;22.30;99.90;;;;;;5014034;28;20456;-71
2022/06/06 14:07:17;;;;;;;3.23;1.87;;;22.20;99.90;;;;;;5013719;28;20410;-70
2022/06/06 14:09:45;;;;;;;1.80;1.70;;;22.10;99.90;;;;;;5013917;28;20410;-70
2022/06/06 14:12:53;;;;;;;2.13;2.03;;;22.10;99.90;;;;;;5013130;28;20434;-70
2022/06/06 14:15:22;;;;;;;2.23;2.00;;;22.10;99.90;;;;;;5008959;28;20462;-71
2022/06/06 14:18:10;;;;;;;2.13;1.90;;;22.10;99.90;;;;;;5015654;28;20442;-71
2022/06/06 14:20:46;;;;;;;3.37;1.60;;;22.10;99.90;;;;;;5035349;28;20405;-71
2022/06/06 14:23:33;;;;;;;2.90;1.77;;;22.20;99.90;;;;;;5034396;28;20424;-72
2022/06/06 14:26:08;;;;;;;2.07;1.97;;;22.30;99.90;;;;;;5033391;28;20500;-70
2022/06/06 14:28:40;;;;;;;1.97;1.77;;;22.40;99.90;;;;;;5033398;28;20412;-71
2022/06/06 14:31:22;;;;;;;2.50;2.30;;;22.50;99.90;;;;;;5032530;28;20449;-70
2022/06/06 14:33:56;;;;;;;2.30;2.10;;;22.50;99.90;;;;;;5025084;28;20417;-70
2022/06/06 14:36:27;;;;;;;4.37;2.30;;;22.50;99.90;;;;;;5013079;28;20416;-71
2022/06/06 14:38:55;;;;;;;2.50;2.20;;;22.60;99.90;;;;;;5013061;28;20414;-71
2022/06/06 14:41:23;;;;;;;5.00;1.97;;;22.70;99.90;;;;;;5012713;28;20469;-71
2022/06/06 14:43:59;;;;;;;3.50;3.27;;;22.90;99.90;;;;;;5013160;28;20504;-72
2022/06/06 14:46:26;;;;;;;2.70;1.97;;;23.10;99.90;;;;;;5012998;28;20930;-71
2022/06/06 14:48:55;;;;;;;4.30;2.33;;;23.00;99.90;;;;;;5013038;28;20457;-71
2022/06/06 14:51:33;;;;;;;5.17;3.20;;;23.20;99.90;;;;;;5012432;28;20457;-70
2022/06/06 14:54:05;;;;;;;2.90;2.70;;;23.50;99.90;;;;;;5013019;28;20420;-69
2022/06/06 14:56:45;;;;;;;2.73;1.70;;;23.70;99.90;;;;;;5012888;28;20976;-70
2022/06/06 14:59:14;;;;;;;4.40;2.10;;;23.60;99.90;;;;;;5012919;28;20445;-72
2022/06/06 15:01:41;;;;;;;1.80;1.70;;;23.80;99.90;;;;;;5012448;28;20437;-71
2022/06/06 15:04:28;;;;;;;3.43;1.80;;;23.90;99.90;;;;;;5012464;28;20450;-71
2022/06/06 15:06:57;;;;;;;5.03;1.50;;;23.80;99.90;;;;;;5011746;28;20417;-72
2022/06/06 15:09:22;;;;;;;2.77;1.93;;;23.80;99.90;;;;;;5012715;28;20496;-72
2022/06/06 15:11:48;;;;;;;1.83;1.70;;;23.60;99.90;;;;;;5012218;28;20852;-71
2022/06/06 15:14:25;;;;;;;1.57;1.47;;;23.60;99.90;;;;;;5012576;28;20182;-71
2022/06/06 15:16:50;;;;;;;1.80;1.70;;;23.60;99.90;;;;;;5012964;28;20201;-71
2022/06/06 15:19:40;;;;;;;2.20;1.50;;;23.50;99.90;;;;;;5030098;28;20417;-72
2022/06/06 15:22:08;;;;;;;1.93;1.77;;;23.60;99.90;;;;;;5031800;28;20197;-71
2022/06/06 15:24:42;;;;;;;3.00;2.30;;;23.40;99.90;;;;;;5032103;28;20449;-71
2022/06/06 15:27:26;;;;;;;2.27;2.07;;;23.20;99.90;;;;;;5031902;28;20929;-70
2022/06/06 15:30:04;;;;;;;2.43;2.30;;;23.10;99.90;;;;;;5032116;28;20404;-72
2022/06/06 15:32:51;;;;;;;2.10;2.00;;;22.90;99.90;;;;;;5031564;28;20447;-71
2022/06/06 15:35:35;;;;;;;2.40;2.30;;;22.80;99.90;;;;;;5004858;28;20473;-71
2022/06/06 15:38:19;;;;;;;1.90;1.80;;;22.70;99.90;;;;;;5010267;28;20449;-70
2022/06/06 15:41:04;;;;;;;1.80;1.70;;;22.70;99.90;;;;;;5001000;28;20528;-72
2022/06/06 15:43:54;;;;;;;2.70;1.70;;;22.60;99.90;;;;;;5010855;28;20496;-72
2022/06/06 15:46:53;;;;;;;2.50;2.30;;;22.70;99.90;;;;;;5010561;28;20465;-71
2022/06/06 15:49:42;;;;;;;2.60;2.23;;;22.70;99.90;;;;;;5011083;28;20441;-72